sensor_id;sensor_type;location;lat;lon;timestamp;P1;durP1;ratioP1;P2;durP2;ratioP2
7539;SDS011;3811;49.006;12.076;2023-05-29T00:01:05;5.50;;;3.67;;
7539;SDS011;3811;49.006;12.076;2023-05-29T00:03:33;5.23;;;3.80;;
7539;SDS011;3811;49.006;12.076;2023-05-29T00:06:01;5.83;;;3.60;;
7539;SDS011;3811;49.006;12.076;2023-05-29T00:08:28;5.77;;;3.80;;
7539;SDS011;3811;49.006;12.076;2023-05-29T00:10:57;5.40;;;4.27;;
7539;SDS011;3811;49.006;12.076;2023-05-29T00:13:25;4.67;;;3.50;;
7539;SDS011;3811;49.006;12.076;2023-05-29T00:15:52;3.97;;;3.40;;
7539;SDS011;3811;49.006;12.076;2023-05-29T00:18:19;5.50;;;4.13;;
7539;SDS011;3811;49.006;12.076;2023-05-29T00:20:46;5.87;;;3.97;;
7539;SDS011;3811;49.006;12.076;2023-05-29T00:23:13;6.80;;;4.03;;
7539;SDS011;3811;49.006;12.076;2023-05-29T00:25:41;8.17;;;4.50;;
7539;SDS011;3811;49.006;12.076;2023-05-29T00:28:09;4.23;;;3.70;;
7539;SDS011;3811;49.006;12.076;2023-05-29T00:30:37;4.73;;;3.70;;
7539;SDS011;3811;49.006;12.076;2023-05-29T00:33:04;6.63;;;3.63;;
7539;SDS011;3811;49.006;12.076;2023-05-29T00:35:32;5.57;;;4.00;;
7539;SDS011;3811;49.006;12.076;2023-05-29T00:37:59;6.87;;;4.53;;
7539;SDS011;3811;49.006;12.076;2023-05-29T00:40:26;7.17;;;3.57;;
7539;SDS011;3811;49.006;12.076;2023-05-29T00:42:53;7.00;;;4.03;;
7539;SDS011;3811;49.006;12.076;2023-05-29T00:45:23;6.40;;;3.77;;
7539;SDS011;3811;49.006;12.076;2023-05-29T00:47:51;6.30;;;4.23;;
7539;SDS011;3811;49.006;12.076;2023-05-29T00:50:20;5.57;;;3.80;;
7539;SDS011;3811;49.006;12.076;2023-05-29T00:52:49;5.83;;;3.67;;
7539;SDS011;3811;49.006;12.076;2023-05-29T00:55:17;5.07;;;4.20;;
7539;SDS011;3811;49.006;12.076;2023-05-29T00:57:44;6.70;;;3.80;;
7539;SDS011;3811;49.006;12.076;2023-05-29T01:00:13;6.30;;;3.90;;
7539;SDS011;3811;49.006;12.076;2023-05-29T01:02:44;5.10;;;3.60;;
7539;SDS011;3811;49.006;12.076;2023-05-29T01:05:12;7.33;;;3.80;;
7539;SDS011;3811;49.006;12.076;2023-05-29T01:07:40;5.70;;;3.30;;
7539;SDS011;3811;49.006;12.076;2023-05-29T01:10:07;4.27;;;3.20;;
7539;SDS011;3811;49.006;12.076;2023-05-29T01:12:37;6.57;;;3.40;;
7539;SDS011;3811;49.006;12.076;2023-05-29T01:15:09;5.93;;;3.83;;
7539;SDS011;3811;49.006;12.076;2023-05-29T01:17:46;5.37;;;3.40;;
7539;SDS011;3811;49.006;12.076;2023-05-29T01:20:27;5.93;;;3.60;;
7539;SDS011;3811;49.006;12.076;2023-05-29T01:23:06;3.93;;;3.57;;
7539;SDS011;3811;49.006;12.076;2023-05-29T01:25:42;8.90;;;3.43;;
7539;SDS011;3811;49.006;12.076;2023-05-29T01:28:25;7.10;;;4.20;;
7539;SDS011;3811;49.006;12.076;2023-05-29T01:30:53;3.83;;;3.47;;
7539;SDS011;3811;49.006;12.076;2023-05-29T01:33:21;7.10;;;3.70;;
7539;SDS011;3811;49.006;12.076;2023-05-29T01:35:49;5.00;;;3.80;;
7539;SDS011;3811;49.006;12.076;2023-05-29T01:38:17;6.07;;;4.00;;
7539;SDS011;3811;49.006;12.076;2023-05-29T01:40:44;5.97;;;4.00;;
7539;SDS011;3811;49.006;12.076;2023-05-29T01:43:11;4.43;;;3.70;;
7539;SDS011;3811;49.006;12.076;2023-05-29T01:45:42;5.43;;;3.80;;
7539;SDS011;3811;49.006;12.076;2023-05-29T01:48:09;6.50;;;4.07;;
7539;SDS011;3811;49.006;12.076;2023-05-29T01:50:37;8.43;;;3.40;;
7539;SDS011;3811;49.006;12.076;2023-05-29T01:53:04;4.37;;;3.80;;
7539;SDS011;3811;49.006;12.076;2023-05-29T01:55:32;4.80;;;4.17;;
7539;SDS011;3811;49.006;12.076;2023-05-29T01:57:59;4.97;;;4.23;;
7539;SDS011;3811;49.006;12.076;2023-05-29T02:00:28;7.23;;;3.40;;
7539;SDS011;3811;49.006;12.076;2023-05-29T02:02:56;6.27;;;3.70;;
7539;SDS011;3811;49.006;12.076;2023-05-29T02:05:24;6.40;;;3.70;;
7539;SDS011;3811;49.006;12.076;2023-05-29T02:07:51;7.93;;;4.20;;
7539;SDS011;3811;49.006;12.076;2023-05-29T02:10:18;3.90;;;3.50;;
7539;SDS011;3811;49.006;12.076;2023-05-29T02:12:46;5.17;;;3.67;;
7539;SDS011;3811;49.006;12.076;2023-05-29T02:15:13;3.80;;;3.40;;
7539;SDS011;3811;49.006;12.076;2023-05-29T02:17:40;3.33;;;3.03;;
7539;SDS011;3811;49.006;12.076;2023-05-29T02:20:09;4.47;;;4.07;;
7539;SDS011;3811;49.006;12.076;2023-05-29T02:22:37;6.00;;;3.93;;
7539;SDS011;3811;49.006;12.076;2023-05-29T02:25:04;3.63;;;3.00;;
7539;SDS011;3811;49.006;12.076;2023-05-29T02:27:32;5.17;;;3.63;;
7539;SDS011;3811;49.006;12.076;2023-05-29T02:29:59;4.03;;;3.37;;
7539;SDS011;3811;49.006;12.076;2023-05-29T02:32:26;5.10;;;3.73;;
7539;SDS011;3811;49.006;12.076;2023-05-29T02:34:54;6.50;;;3.83;;
7539;SDS011;3811;49.006;12.076;2023-05-29T02:37:23;5.27;;;3.53;;
7539;SDS011;3811;49.006;12.076;2023-05-29T02:39:51;4.07;;;3.50;;
7539;SDS011;3811;49.006;12.076;2023-05-29T02:42:18;4.80;;;3.43;;
7539;SDS011;3811;49.006;12.076;2023-05-29T02:44:45;4.07;;;3.47;;
7539;SDS011;3811;49.006;12.076;2023-05-29T02:47:13;4.50;;;3.40;;
7539;SDS011;3811;49.006;12.076;2023-05-29T02:49:40;4.60;;;3.83;;
7539;SDS011;3811;49.006;12.076;2023-05-29T02:52:08;3.87;;;3.37;;
7539;SDS011;3811;49.006;12.076;2023-05-29T02:54:36;3.87;;;3.13;;
7539;SDS011;3811;49.006;12.076;2023-05-29T02:57:04;7.17;;;3.80;;
7539;SDS011;3811;49.006;12.076;2023-05-29T02:59:31;6.80;;;3.60;;
7539;SDS011;3811;49.006;12.076;2023-05-29T03:01:58;7.43;;;3.53;;
7539;SDS011;3811;49.006;12.076;2023-05-29T03:04:28;5.53;;;3.50;;
7539;SDS011;3811;49.006;12.076;2023-05-29T03:06:55;4.60;;;3.80;;
7539;SDS011;3811;49.006;12.076;2023-05-29T03:09:22;4.53;;;3.80;;
7539;SDS011;3811;49.006;12.076;2023-05-29T03:11:51;4.57;;;3.50;;
7539;SDS011;3811;49.006;12.076;2023-05-29T03:14:18;5.77;;;3.70;;
7539;SDS011;3811;49.006;12.076;2023-05-29T03:16:46;6.93;;;3.80;;
7539;SDS011;3811;49.006;12.076;2023-05-29T03:19:14;4.97;;;3.93;;
7539;SDS011;3811;49.006;12.076;2023-05-29T03:21:41;6.10;;;3.70;;
7539;SDS011;3811;49.006;12.076;2023-05-29T03:24:09;6.43;;;3.93;;
7539;SDS011;3811;49.006;12.076;2023-05-29T03:26:38;6.97;;;3.70;;
7539;SDS011;3811;49.006;12.076;2023-05-29T03:29:07;5.33;;;3.60;;
7539;SDS011;3811;49.006;12.076;2023-05-29T03:31:35;4.60;;;3.30;;
7539;SDS011;3811;49.006;12.076;2023-05-29T03:34:02;4.27;;;3.80;;
7539;SDS011;3811;49.006;12.076;2023-05-29T03:36:34;4.67;;;3.60;;
7539;SDS011;3811;49.006;12.076;2023-05-29T03:39:02;5.07;;;3.97;;
7539;SDS011;3811;49.006;12.076;2023-05-29T03:41:30;5.07;;;3.50;;
7539;SDS011;3811;49.006;12.076;2023-05-29T03:43:57;4.57;;;3.13;;
7539;SDS011;3811;49.006;12.076;2023-05-29T03:46:28;5.17;;;3.67;;
7539;SDS011;3811;49.006;12.076;2023-05-29T03:48:55;6.77;;;3.70;;
7539;SDS011;3811;49.006;12.076;2023-05-29T03:51:22;6.23;;;3.53;;
7539;SDS011;3811;49.006;12.076;2023-05-29T03:53:52;5.10;;;3.97;;
7539;SDS011;3811;49.006;12.076;2023-05-29T03:56:20;5.10;;;3.57;;
7539;SDS011;3811;49.006;12.076;2023-05-29T03:58:48;8.70;;;3.83;;
7539;SDS011;3811;49.006;12.076;2023-05-29T04:01:16;4.40;;;3.40;;
7539;SDS011;3811;49.006;12.076;2023-05-29T04:03:44;6.23;;;4.10;;
7539;SDS011;3811;49.006;12.076;2023-05-29T04:06:13;4.10;;;3.50;;
7539;SDS011;3811;49.006;12.076;2023-05-29T04:08:42;5.07;;;3.83;;
7539;SDS011;3811;49.006;12.076;2023-05-29T04:11:09;5.10;;;3.57;;
7539;SDS011;3811;49.006;12.076;2023-05-29T04:13:39;6.63;;;3.23;;
7539;SDS011;3811;49.006;12.076;2023-05-29T04:16:06;4.53;;;3.60;;
7539;SDS011;3811;49.006;12.076;2023-05-29T04:18:33;5.70;;;3.57;;
7539;SDS011;3811;49.006;12.076;2023-05-29T04:21:02;4.50;;;3.50;;
7539;SDS011;3811;49.006;12.076;2023-05-29T04:23:30;6.00;;;3.83;;
7539;SDS011;3811;49.006;12.076;2023-05-29T04:25:57;5.57;;;3.33;;
7539;SDS011;3811;49.006;12.076;2023-05-29T04:28:26;5.23;;;3.10;;
7539;SDS011;3811;49.006;12.076;2023-05-29T04:30:55;3.90;;;3.43;;
7539;SDS011;3811;49.006;12.076;2023-05-29T04:33:22;5.77;;;3.47;;
7539;SDS011;3811;49.006;12.076;2023-05-29T04:35:51;5.03;;;3.63;;
7539;SDS011;3811;49.006;12.076;2023-05-29T04:38:20;7.77;;;4.27;;
7539;SDS011;3811;49.006;12.076;2023-05-29T04:40:51;6.77;;;3.60;;
7539;SDS011;3811;49.006;12.076;2023-05-29T04:43:22;6.00;;;3.97;;
7539;SDS011;3811;49.006;12.076;2023-05-29T04:46:01;6.90;;;4.00;;
7539;SDS011;3811;49.006;12.076;2023-05-29T04:48:30;4.97;;;3.93;;
7539;SDS011;3811;49.006;12.076;2023-05-29T04:50:57;5.77;;;3.80;;
7539;SDS011;3811;49.006;12.076;2023-05-29T04:53:26;6.30;;;3.90;;
7539;SDS011;3811;49.006;12.076;2023-05-29T04:55:53;6.17;;;3.70;;
7539;SDS011;3811;49.006;12.076;2023-05-29T04:58:20;4.27;;;3.80;;
7539;SDS011;3811;49.006;12.076;2023-05-29T05:00:50;4.83;;;3.63;;
7539;SDS011;3811;49.006;12.076;2023-05-29T05:03:17;5.83;;;3.87;;
7539;SDS011;3811;49.006;12.076;2023-05-29T05:05:44;3.87;;;3.47;;
7539;SDS011;3811;49.006;12.076;2023-05-29T05:08:13;6.10;;;3.97;;
7539;SDS011;3811;49.006;12.076;2023-05-29T05:10:42;4.87;;;4.17;;
7539;SDS011;3811;49.006;12.076;2023-05-29T05:13:09;4.27;;;3.13;;
7539;SDS011;3811;49.006;12.076;2023-05-29T05:15:38;5.03;;;3.83;;
7539;SDS011;3811;49.006;12.076;2023-05-29T05:18:05;5.57;;;3.40;;
7539;SDS011;3811;49.006;12.076;2023-05-29T05:20:33;6.43;;;3.57;;
7539;SDS011;3811;49.006;12.076;2023-05-29T05:23:01;7.17;;;3.90;;
7539;SDS011;3811;49.006;12.076;2023-05-29T05:25:28;4.80;;;3.30;;
7539;SDS011;3811;49.006;12.076;2023-05-29T05:27:56;6.47;;;3.70;;
7539;SDS011;3811;49.006;12.076;2023-05-29T05:30:25;7.47;;;3.73;;
7539;SDS011;3811;49.006;12.076;2023-05-29T05:32:53;4.57;;;3.60;;
7539;SDS011;3811;49.006;12.076;2023-05-29T05:35:20;3.70;;;3.40;;
7539;SDS011;3811;49.006;12.076;2023-05-29T05:37:47;5.50;;;3.57;;
7539;SDS011;3811;49.006;12.076;2023-05-29T05:40:14;7.33;;;3.57;;
7539;SDS011;3811;49.006;12.076;2023-05-29T05:42:50;4.60;;;3.73;;
7539;SDS011;3811;49.006;12.076;2023-05-29T05:45:23;4.70;;;3.17;;
7539;SDS011;3811;49.006;12.076;2023-05-29T05:47:51;6.73;;;3.33;;
7539;SDS011;3811;49.006;12.076;2023-05-29T05:50:21;4.33;;;3.20;;
7539;SDS011;3811;49.006;12.076;2023-05-29T05:52:49;10.03;;;3.77;;
7539;SDS011;3811;49.006;12.076;2023-05-29T05:55:17;4.33;;;3.20;;
7539;SDS011;3811;49.006;12.076;2023-05-29T05:57:44;6.93;;;3.80;;
7539;SDS011;3811;49.006;12.076;2023-05-29T06:00:12;7.63;;;3.27;;
7539;SDS011;3811;49.006;12.076;2023-05-29T06:02:43;4.67;;;3.80;;
7539;SDS011;3811;49.006;12.076;2023-05-29T06:05:17;5.53;;;4.00;;
7539;SDS011;3811;49.006;12.076;2023-05-29T06:07:44;4.00;;;3.13;;
7539;SDS011;3811;49.006;12.076;2023-05-29T06:10:11;3.97;;;2.90;;
7539;SDS011;3811;49.006;12.076;2023-05-29T06:12:38;4.90;;;3.17;;
7539;SDS011;3811;49.006;12.076;2023-05-29T06:15:16;4.77;;;3.10;;
7539;SDS011;3811;49.006;12.076;2023-05-29T06:17:45;6.03;;;3.43;;
7539;SDS011;3811;49.006;12.076;2023-05-29T06:20:14;3.80;;;3.10;;
7539;SDS011;3811;49.006;12.076;2023-05-29T06:22:41;4.97;;;3.20;;
7539;SDS011;3811;49.006;12.076;2023-05-29T06:25:08;5.80;;;3.60;;
7539;SDS011;3811;49.006;12.076;2023-05-29T06:27:35;4.37;;;3.23;;
7539;SDS011;3811;49.006;12.076;2023-05-29T06:30:03;6.33;;;3.57;;
7539;SDS011;3811;49.006;12.076;2023-05-29T06:32:30;11.43;;;3.50;;
7539;SDS011;3811;49.006;12.076;2023-05-29T06:35:00;9.27;;;3.27;;
7539;SDS011;3811;49.006;12.076;2023-05-29T06:37:28;5.70;;;3.33;;
7539;SDS011;3811;49.006;12.076;2023-05-29T06:39:55;4.40;;;3.23;;
7539;SDS011;3811;49.006;12.076;2023-05-29T06:42:23;4.93;;;3.20;;
7539;SDS011;3811;49.006;12.076;2023-05-29T06:44:56;3.60;;;3.30;;
7539;SDS011;3811;49.006;12.076;2023-05-29T06:47:26;5.83;;;3.30;;
7539;SDS011;3811;49.006;12.076;2023-05-29T06:49:53;5.80;;;3.17;;
7539;SDS011;3811;49.006;12.076;2023-05-29T06:52:22;4.40;;;3.20;;
7539;SDS011;3811;49.006;12.076;2023-05-29T06:55:08;3.60;;;2.67;;
7539;SDS011;3811;49.006;12.076;2023-05-29T06:57:36;4.37;;;3.10;;
7539;SDS011;3811;49.006;12.076;2023-05-29T07:00:04;4.20;;;3.10;;
7539;SDS011;3811;49.006;12.076;2023-05-29T07:02:36;4.57;;;3.50;;
7539;SDS011;3811;49.006;12.076;2023-05-29T07:05:04;4.90;;;3.20;;
7539;SDS011;3811;49.006;12.076;2023-05-29T07:07:32;4.10;;;3.30;;
7539;SDS011;3811;49.006;12.076;2023-05-29T07:10:00;5.43;;;3.37;;
7539;SDS011;3811;49.006;12.076;2023-05-29T07:12:28;6.13;;;3.20;;
7539;SDS011;3811;49.006;12.076;2023-05-29T07:14:57;5.80;;;3.47;;
7539;SDS011;3811;49.006;12.076;2023-05-29T07:17:24;4.87;;;3.10;;
7539;SDS011;3811;49.006;12.076;2023-05-29T07:20:02;3.30;;;3.00;;
7539;SDS011;3811;49.006;12.076;2023-05-29T07:22:35;4.00;;;3.10;;
7539;SDS011;3811;49.006;12.076;2023-05-29T07:25:02;3.40;;;3.10;;
7539;SDS011;3811;49.006;12.076;2023-05-29T07:27:29;3.50;;;3.20;;
7539;SDS011;3811;49.006;12.076;2023-05-29T07:29:57;4.37;;;2.97;;
7539;SDS011;3811;49.006;12.076;2023-05-29T07:32:24;3.30;;;2.73;;
7539;SDS011;3811;49.006;12.076;2023-05-29T07:34:52;3.97;;;3.00;;
7539;SDS011;3811;49.006;12.076;2023-05-29T07:37:21;3.20;;;2.77;;
7539;SDS011;3811;49.006;12.076;2023-05-29T07:39:50;3.27;;;2.90;;
7539;SDS011;3811;49.006;12.076;2023-05-29T07:42:37;6.73;;;3.13;;
7539;SDS011;3811;49.006;12.076;2023-05-29T07:45:04;2.77;;;2.57;;
7539;SDS011;3811;49.006;12.076;2023-05-29T07:47:32;3.20;;;2.90;;
7539;SDS011;3811;49.006;12.076;2023-05-29T07:49:59;4.60;;;2.97;;
7539;SDS011;3811;49.006;12.076;2023-05-29T07:52:27;4.13;;;2.70;;
7539;SDS011;3811;49.006;12.076;2023-05-29T07:54:56;3.40;;;2.70;;
7539;SDS011;3811;49.006;12.076;2023-05-29T07:57:24;3.30;;;2.80;;
7539;SDS011;3811;49.006;12.076;2023-05-29T07:59:52;5.33;;;2.80;;
7539;SDS011;3811;49.006;12.076;2023-05-29T08:02:21;5.00;;;2.70;;
7539;SDS011;3811;49.006;12.076;2023-05-29T08:05:07;4.67;;;2.80;;
7539;SDS011;3811;49.006;12.076;2023-05-29T08:07:36;3.43;;;2.80;;
7539;SDS011;3811;49.006;12.076;2023-05-29T08:10:05;5.30;;;3.20;;
7539;SDS011;3811;49.006;12.076;2023-05-29T08:12:32;3.50;;;3.10;;
7539;SDS011;3811;49.006;12.076;2023-05-29T08:15:01;3.20;;;2.90;;
7539;SDS011;3811;49.006;12.076;2023-05-29T08:17:29;4.87;;;3.13;;
7539;SDS011;3811;49.006;12.076;2023-05-29T08:19:56;3.90;;;3.07;;
7539;SDS011;3811;49.006;12.076;2023-05-29T08:22:27;4.17;;;2.63;;
7539;SDS011;3811;49.006;12.076;2023-05-29T08:24:55;3.07;;;2.70;;
7539;SDS011;3811;49.006;12.076;2023-05-29T08:27:24;3.03;;;2.60;;
7539;SDS011;3811;49.006;12.076;2023-05-29T08:29:52;3.10;;;2.80;;
7539;SDS011;3811;49.006;12.076;2023-05-29T08:32:19;4.67;;;2.70;;
7539;SDS011;3811;49.006;12.076;2023-05-29T08:34:46;4.33;;;2.80;;
7539;SDS011;3811;49.006;12.076;2023-05-29T08:37:15;4.77;;;2.57;;
7539;SDS011;3811;49.006;12.076;2023-05-29T08:39:42;3.07;;;2.77;;
7539;SDS011;3811;49.006;12.076;2023-05-29T08:42:12;4.57;;;3.10;;
7539;SDS011;3811;49.006;12.076;2023-05-29T08:44:41;4.33;;;2.70;;
7539;SDS011;3811;49.006;12.076;2023-05-29T08:47:12;4.30;;;2.83;;
7539;SDS011;3811;49.006;12.076;2023-05-29T08:49:45;3.47;;;3.17;;
7539;SDS011;3811;49.006;12.076;2023-05-29T08:52:18;2.87;;;2.67;;
7539;SDS011;3811;49.006;12.076;2023-05-29T08:54:46;3.50;;;2.77;;
7539;SDS011;3811;49.006;12.076;2023-05-29T08:57:13;3.07;;;2.70;;
7539;SDS011;3811;49.006;12.076;2023-05-29T08:59:43;3.97;;;3.00;;
7539;SDS011;3811;49.006;12.076;2023-05-29T09:02:11;3.70;;;2.90;;
7539;SDS011;3811;49.006;12.076;2023-05-29T09:04:40;2.73;;;2.53;;
7539;SDS011;3811;49.006;12.076;2023-05-29T09:07:10;4.83;;;2.73;;
7539;SDS011;3811;49.006;12.076;2023-05-29T09:09:37;6.00;;;2.87;;
7539;SDS011;3811;49.006;12.076;2023-05-29T09:12:05;4.60;;;2.77;;
7539;SDS011;3811;49.006;12.076;2023-05-29T09:14:33;3.73;;;2.87;;
7539;SDS011;3811;49.006;12.076;2023-05-29T09:17:06;3.10;;;2.70;;
7539;SDS011;3811;49.006;12.076;2023-05-29T09:19:33;3.67;;;3.33;;
7539;SDS011;3811;49.006;12.076;2023-05-29T09:22:02;3.47;;;2.70;;
7539;SDS011;3811;49.006;12.076;2023-05-29T09:24:30;4.40;;;3.03;;
7539;SDS011;3811;49.006;12.076;2023-05-29T09:26:58;5.63;;;3.20;;
7539;SDS011;3811;49.006;12.076;2023-05-29T09:29:26;2.80;;;2.60;;
7539;SDS011;3811;49.006;12.076;2023-05-29T09:31:53;3.23;;;2.73;;
7539;SDS011;3811;49.006;12.076;2023-05-29T09:34:24;4.17;;;3.37;;
7539;SDS011;3811;49.006;12.076;2023-05-29T09:36:52;3.87;;;2.80;;
7539;SDS011;3811;49.006;12.076;2023-05-29T09:39:21;5.53;;;3.30;;
7539;SDS011;3811;49.006;12.076;2023-05-29T09:41:49;4.10;;;2.70;;
7539;SDS011;3811;49.006;12.076;2023-05-29T09:44:16;3.17;;;2.50;;
7539;SDS011;3811;49.006;12.076;2023-05-29T09:46:43;3.63;;;2.53;;
7539;SDS011;3811;49.006;12.076;2023-05-29T09:49:11;5.97;;;2.87;;
7539;SDS011;3811;49.006;12.076;2023-05-29T09:51:40;4.30;;;3.07;;
7539;SDS011;3811;49.006;12.076;2023-05-29T09:54:13;3.00;;;2.70;;
7539;SDS011;3811;49.006;12.076;2023-05-29T09:56:43;4.10;;;2.77;;
7539;SDS011;3811;49.006;12.076;2023-05-29T09:59:11;2.93;;;2.63;;
7539;SDS011;3811;49.006;12.076;2023-05-29T10:01:39;4.00;;;2.50;;
7539;SDS011;3811;49.006;12.076;2023-05-29T10:04:09;3.33;;;2.60;;
7539;SDS011;3811;49.006;12.076;2023-05-29T10:06:37;3.47;;;2.60;;
7539;SDS011;3811;49.006;12.076;2023-05-29T10:09:07;3.17;;;2.87;;
7539;SDS011;3811;49.006;12.076;2023-05-29T10:11:37;3.00;;;2.70;;
7539;SDS011;3811;49.006;12.076;2023-05-29T10:14:06;9.57;;;3.03;;
7539;SDS011;3811;49.006;12.076;2023-05-29T10:16:33;3.60;;;2.90;;
7539;SDS011;3811;49.006;12.076;2023-05-29T10:19:06;5.40;;;3.53;;
7539;SDS011;3811;49.006;12.076;2023-05-29T10:21:39;3.97;;;3.10;;
7539;SDS011;3811;49.006;12.076;2023-05-29T10:24:08;3.10;;;2.70;;
7539;SDS011;3811;49.006;12.076;2023-05-29T10:26:38;4.33;;;2.90;;
7539;SDS011;3811;49.006;12.076;2023-05-29T10:29:08;3.50;;;2.70;;
7539;SDS011;3811;49.006;12.076;2023-05-29T10:31:43;3.27;;;2.43;;
7539;SDS011;3811;49.006;12.076;2023-05-29T10:34:20;4.33;;;2.73;;
7539;SDS011;3811;49.006;12.076;2023-05-29T10:36:56;3.83;;;2.70;;
7539;SDS011;3811;49.006;12.076;2023-05-29T10:39:32;2.87;;;2.63;;
7539;SDS011;3811;49.006;12.076;2023-05-29T10:41:59;2.97;;;2.67;;
7539;SDS011;3811;49.006;12.076;2023-05-29T10:44:39;2.83;;;2.63;;
7539;SDS011;3811;49.006;12.076;2023-05-29T10:47:07;5.70;;;3.20;;
7539;SDS011;3811;49.006;12.076;2023-05-29T10:49:35;2.70;;;2.50;;
7539;SDS011;3811;49.006;12.076;2023-05-29T10:52:03;4.63;;;2.55;;
7539;SDS011;3811;49.006;12.076;2023-05-29T10:54:41;3.00;;;2.70;;
7539;SDS011;3811;49.006;12.076;2023-05-29T10:57:17;3.65;;;2.30;;
7539;SDS011;3811;49.006;12.076;2023-05-29T10:59:46;3.00;;;2.55;;
7539;SDS011;3811;49.006;12.076;2023-05-29T11:02:17;3.58;;;2.60;;
7539;SDS011;3811;49.006;12.076;2023-05-29T11:04:44;3.25;;;2.95;;
7539;SDS011;3811;49.006;12.076;2023-05-29T11:07:34;2.72;;;2.13;;
7539;SDS011;3811;49.006;12.076;2023-05-29T11:10:12;4.30;;;3.05;;
7539;SDS011;3811;49.006;12.076;2023-05-29T11:15:25;3.67;;;2.85;;
7539;SDS011;3811;49.006;12.076;2023-05-29T11:17:52;4.05;;;3.08;;
7539;SDS011;3811;49.006;12.076;2023-05-29T11:20:36;3.33;;;3.03;;
7539;SDS011;3811;49.006;12.076;2023-05-29T11:23:08;5.03;;;3.25;;
7539;SDS011;3811;49.006;12.076;2023-05-29T11:25:44;3.35;;;3.05;;
7539;SDS011;3811;49.006;12.076;2023-05-29T11:28:12;5.65;;;3.22;;
7539;SDS011;3811;49.006;12.076;2023-05-29T11:30:43;3.28;;;2.97;;
7539;SDS011;3811;49.006;12.076;2023-05-29T11:33:19;4.30;;;3.35;;
7539;SDS011;3811;49.006;12.076;2023-05-29T11:35:53;3.95;;;2.92;;
7539;SDS011;3811;49.006;12.076;2023-05-29T11:38:22;3.10;;;2.90;;
7539;SDS011;3811;49.006;12.076;2023-05-29T11:40:51;3.30;;;2.90;;
7539;SDS011;3811;49.006;12.076;2023-05-29T11:43:18;3.08;;;2.88;;
7539;SDS011;3811;49.006;12.076;2023-05-29T11:45:46;3.10;;;2.90;;
7539;SDS011;3811;49.006;12.076;2023-05-29T11:48:13;3.20;;;2.90;;
7539;SDS011;3811;49.006;12.076;2023-05-29T11:50:40;4.38;;;3.03;;
7539;SDS011;3811;49.006;12.076;2023-05-29T11:53:08;5.35;;;2.72;;
7539;SDS011;3811;49.006;12.076;2023-05-29T11:55:35;3.20;;;2.85;;
7539;SDS011;3811;49.006;12.076;2023-05-29T11:58:04;3.85;;;2.90;;
7539;SDS011;3811;49.006;12.076;2023-05-29T12:00:31;2.55;;;2.35;;
7539;SDS011;3811;49.006;12.076;2023-05-29T12:03:00;3.55;;;3.25;;
7539;SDS011;3811;49.006;12.076;2023-05-29T12:05:29;4.63;;;2.92;;
7539;SDS011;3811;49.006;12.076;2023-05-29T12:07:56;3.53;;;3.22;;
7539;SDS011;3811;49.006;12.076;2023-05-29T12:10:26;3.17;;;2.88;;
7539;SDS011;3811;49.006;12.076;2023-05-29T12:12:53;3.22;;;2.85;;
7539;SDS011;3811;49.006;12.076;2023-05-29T12:15:22;3.15;;;2.85;;
7539;SDS011;3811;49.006;12.076;2023-05-29T12:17:50;4.05;;;3.65;;
7539;SDS011;3811;49.006;12.076;2023-05-29T12:20:17;4.47;;;3.00;;
7539;SDS011;3811;49.006;12.076;2023-05-29T12:22:45;3.15;;;2.85;;
7539;SDS011;3811;49.006;12.076;2023-05-29T12:25:13;3.72;;;3.20;;
7539;SDS011;3811;49.006;12.076;2023-05-29T12:27:42;3.33;;;2.80;;
7539;SDS011;3811;49.006;12.076;2023-05-29T12:30:12;3.47;;;3.00;;
7539;SDS011;3811;49.006;12.076;2023-05-29T12:32:42;2.97;;;2.75;;
7539;SDS011;3811;49.006;12.076;2023-05-29T12:35:13;4.78;;;2.75;;
7539;SDS011;3811;49.006;12.076;2023-05-29T12:37:45;5.35;;;3.08;;
7539;SDS011;3811;49.006;12.076;2023-05-29T12:40:15;3.88;;;2.47;;
7539;SDS011;3811;49.006;12.076;2023-05-29T12:42:42;5.10;;;2.85;;
7539;SDS011;3811;49.006;12.076;2023-05-29T12:45:10;3.25;;;2.95;;
7539;SDS011;3811;49.006;12.076;2023-05-29T12:47:37;3.00;;;2.70;;
7539;SDS011;3811;49.006;12.076;2023-05-29T12:50:08;3.22;;;2.70;;
7539;SDS011;3811;49.006;12.076;2023-05-29T12:52:45;4.72;;;3.15;;
7539;SDS011;3811;49.006;12.076;2023-05-29T12:55:13;4.15;;;3.00;;
7539;SDS011;3811;49.006;12.076;2023-05-29T12:57:40;3.03;;;2.83;;
7539;SDS011;3811;49.006;12.076;2023-05-29T13:00:10;4.03;;;2.78;;
7539;SDS011;3811;49.006;12.076;2023-05-29T13:02:38;3.05;;;2.85;;
7539;SDS011;3811;49.006;12.076;2023-05-29T13:05:06;2.95;;;2.55;;
7539;SDS011;3811;49.006;12.076;2023-05-29T13:07:34;3.63;;;3.00;;
7539;SDS011;3811;49.006;12.076;2023-05-29T13:10:02;4.47;;;2.50;;
7539;SDS011;3811;49.006;12.076;2023-05-29T13:12:30;3.25;;;2.95;;
7539;SDS011;3811;49.006;12.076;2023-05-29T13:14:57;3.22;;;2.88;;
7539;SDS011;3811;49.006;12.076;2023-05-29T13:17:23;3.22;;;2.92;;
7539;SDS011;3811;49.006;12.076;2023-05-29T13:19:51;4.25;;;2.85;;
7539;SDS011;3811;49.006;12.076;2023-05-29T13:22:18;4.53;;;2.63;;
7539;SDS011;3811;49.006;12.076;2023-05-29T13:24:46;4.43;;;3.08;;
7539;SDS011;3811;49.006;12.076;2023-05-29T13:27:14;3.22;;;2.80;;
7539;SDS011;3811;49.006;12.076;2023-05-29T13:29:41;3.00;;;2.72;;
7539;SDS011;3811;49.006;12.076;2023-05-29T13:32:08;5.10;;;3.60;;
7539;SDS011;3811;49.006;12.076;2023-05-29T13:34:35;3.95;;;2.90;;
7539;SDS011;3811;49.006;12.076;2023-05-29T13:37:02;3.60;;;3.30;;
7539;SDS011;3811;49.006;12.076;2023-05-29T13:39:30;3.38;;;3.05;;
7539;SDS011;3811;49.006;12.076;2023-05-29T13:41:58;3.47;;;2.80;;
7539;SDS011;3811;49.006;12.076;2023-05-29T13:44:26;2.85;;;2.65;;
7539;SDS011;3811;49.006;12.076;2023-05-29T13:46:53;2.88;;;2.67;;
7539;SDS011;3811;49.006;12.076;2023-05-29T13:49:20;2.90;;;2.70;;
7539;SDS011;3811;49.006;12.076;2023-05-29T13:51:47;2.90;;;2.58;;
7539;SDS011;3811;49.006;12.076;2023-05-29T13:54:15;3.20;;;3.00;;
7539;SDS011;3811;49.006;12.076;2023-05-29T13:56:42;3.08;;;2.88;;
7539;SDS011;3811;49.006;12.076;2023-05-29T13:59:11;2.90;;;2.70;;
7539;SDS011;3811;49.006;12.076;2023-05-29T14:01:38;4.93;;;3.05;;
7539;SDS011;3811;49.006;12.076;2023-05-29T14:04:05;2.92;;;2.67;;
7539;SDS011;3811;49.006;12.076;2023-05-29T14:06:33;2.95;;;2.65;;
7539;SDS011;3811;49.006;12.076;2023-05-29T14:09:02;2.90;;;2.67;;
7539;SDS011;3811;49.006;12.076;2023-05-29T14:11:29;3.10;;;2.70;;
7539;SDS011;3811;49.006;12.076;2023-05-29T14:14:00;3.60;;;3.20;;
7539;SDS011;3811;49.006;12.076;2023-05-29T14:16:29;2.97;;;2.78;;
7539;SDS011;3811;49.006;12.076;2023-05-29T14:18:55;3.10;;;2.90;;
7539;SDS011;3811;49.006;12.076;2023-05-29T14:21:23;2.95;;;2.75;;
7539;SDS011;3811;49.006;12.076;2023-05-29T14:23:50;3.53;;;2.75;;
7539;SDS011;3811;49.006;12.076;2023-05-29T14:26:17;3.67;;;2.90;;
7539;SDS011;3811;49.006;12.076;2023-05-29T14:28:45;3.17;;;2.88;;
7539;SDS011;3811;49.006;12.076;2023-05-29T14:31:13;2.78;;;2.58;;
7539;SDS011;3811;49.006;12.076;2023-05-29T14:33:42;2.60;;;2.40;;
7539;SDS011;3811;49.006;12.076;2023-05-29T14:36:09;2.88;;;2.60;;
7539;SDS011;3811;49.006;12.076;2023-05-29T14:38:37;2.97;;;2.67;;
7539;SDS011;3811;49.006;12.076;2023-05-29T14:41:04;2.97;;;2.78;;
7539;SDS011;3811;49.006;12.076;2023-05-29T14:43:32;4.40;;;2.40;;
7539;SDS011;3811;49.006;12.076;2023-05-29T14:46:00;3.05;;;2.67;;
7539;SDS011;3811;49.006;12.076;2023-05-29T14:48:27;2.90;;;2.40;;
7539;SDS011;3811;49.006;12.076;2023-05-29T14:50:55;2.83;;;2.50;;
7539;SDS011;3811;49.006;12.076;2023-05-29T14:53:22;2.83;;;2.63;;
7539;SDS011;3811;49.006;12.076;2023-05-29T14:55:49;2.78;;;2.58;;
7539;SDS011;3811;49.006;12.076;2023-05-29T14:58:16;3.30;;;2.70;;
7539;SDS011;3811;49.006;12.076;2023-05-29T15:00:43;3.05;;;2.78;;
7539;SDS011;3811;49.006;12.076;2023-05-29T15:03:10;2.80;;;2.60;;
7539;SDS011;3811;49.006;12.076;2023-05-29T15:05:38;3.20;;;2.90;;
7539;SDS011;3811;49.006;12.076;2023-05-29T15:08:06;4.38;;;2.67;;
7539;SDS011;3811;49.006;12.076;2023-05-29T15:10:33;2.85;;;2.65;;
7539;SDS011;3811;49.006;12.076;2023-05-29T15:13:00;3.03;;;2.83;;